Mount Darwin, Zimbabwe
Current Conditions -  °F | °C
As of 12:00 PM on Friday 28 Nov 2014 (Local Time) from FVHA Reporting Station
Clear Clear  
Wind Chill: 86°   Ceiling: Unl
Heat Index: 86°   Visibility: 6mi
Dew Point: 50°   Wind: 6mph
Humidity: 29%   Direction: 70°ENE
Pressure: 30.12"   Gusts: NA
Location:  16.77°S, 31.58°E
Report Text: FVHA 281000Z 07005KT 330V100 CAVOK 30/10 Q1020 NOSIG RMK QFE 852.4
Loading
Personal Weather Stations






























Interactive Weather Map New forecast layout! Learn more

10-Day Weather Forecast

Advertisements
Track Severe Weather on mobile